Time;durP1;ratioP1;P1;durP2;ratioP2;P2;SDS_P1;SDS_P2;PMS_P1;PMS_P2;Temp;Humidity;BMP_temperature;BMP_pressure;BME280_temperature;BME280_humidity;BME280_pressure;Samples;Min_cycle;Max_cycle;Signal;HPM_P1;HPM_P2
2023/10/08 00:01:43;;;;;;;10.25;8.43;;;;;;;25.47;44.02;97202.59;6127744;23;20006;-25
2023/10/08 00:04:18;;;;;;;8.77;7.88;;;;;;;25.52;44.00;97197.00;6127041;23;20463;-25
2023/10/08 00:06:45;;;;;;;9.82;7.72;;;;;;;25.53;43.97;97203.31;6127579;23;20321;-25
2023/10/08 00:09:11;;;;;;;9.27;8.27;;;;;;;25.47;44.25;97191.50;6127363;23;20356;-25
2023/10/08 00:11:37;;;;;;;11.40;7.65;;;;;;;25.58;43.99;97195.00;6127501;23;20077;-25
2023/10/08 00:14:08;;;;;;;11.32;7.82;;;;;;;25.51;44.03;97197.53;6126902;23;20005;-25
2023/10/08 00:16:34;;;;;;;10.85;8.30;;;;;;;25.49;44.37;97188.94;6127610;23;20006;-25
2023/10/08 00:19:07;;;;;;;9.07;7.85;;;;;;;25.43;44.48;97183.41;6127274;23;20086;-25
2023/10/08 00:21:34;;;;;;;10.70;8.30;;;;;;;25.47;44.42;97185.94;6127459;23;20100;-25
2023/10/08 00:24:00;;;;;;;10.18;8.40;;;;;;;25.30;44.67;97185.94;6127230;23;20006;-25
2023/10/08 00:26:27;;;;;;;9.98;8.13;;;;;;;25.52;44.45;97190.69;6127167;23;20356;-25
2023/10/08 00:29:06;;;;;;;11.00;8.05;;;;;;;25.37;45.13;97185.41;6127229;23;20002;-25
2023/10/08 00:31:40;;;;;;;10.57;8.65;;;;;;;25.64;43.88;97187.41;6127004;23;20008;-25
2023/10/08 00:34:08;;;;;;;12.38;8.55;;;;;;;25.45;44.84;97180.88;6127318;23;20077;-25
2023/10/08 00:36:34;;;;;;;10.85;8.70;;;;;;;25.37;44.97;97177.84;6126756;23;20447;-25
2023/10/08 00:39:00;;;;;;;9.63;8.10;;;;;;;25.44;44.44;97175.84;6126976;23;20011;-25
2023/10/08 00:41:30;;;;;;;13.55;9.10;;;;;;;25.42;44.41;97177.09;6127439;23;20009;-25
2023/10/08 00:43:59;;;;;;;12.18;8.68;;;;;;;25.47;44.23;97174.81;6127070;23;20006;-25
2023/10/08 00:46:29;;;;;;;11.10;8.60;;;;;;;25.24;45.38;97172.06;6127182;23;20017;-25
2023/10/08 00:48:56;;;;;;;8.73;7.75;;;;;;;25.26;45.21;97169.53;6126768;23;20510;-25
2023/10/08 00:54:06;;;;;;;10.30;8.13;;;;;;;25.34;44.99;97158.69;6126631;23;20361;-25
2023/10/08 00:56:53;;;;;;;10.30;8.18;;;;;;;25.48;44.90;97156.88;6101082;23;20336;-25
2023/10/08 00:59:21;;;;;;;12.45;8.75;;;;;;;25.45;44.50;97166.25;6127176;23;20081;-25
2023/10/08 01:01:59;;;;;;;11.35;8.65;;;;;;;25.40;44.66;97157.41;6127108;23;20005;-25
2023/10/08 01:04:33;;;;;;;10.82;8.48;;;;;;;25.24;45.08;97154.66;6127039;23;20013;-25
2023/10/08 01:07:12;;;;;;;13.10;8.13;;;;;;;25.43;44.36;97155.63;6126991;23;20005;-25
2023/10/08 01:09:40;;;;;;;11.57;8.80;;;;;;;25.44;44.74;97161.94;6126948;23;20010;-25
2023/10/08 01:12:23;;;;;;;10.23;8.00;;;;;;;25.40;44.99;97154.63;6126669;23;20037;-25
2023/10/08 01:14:53;;;;;;;11.63;8.02;;;;;;;25.50;44.20;97157.13;6127015;23;20100;-25
2023/10/08 01:17:24;;;;;;;9.52;8.13;;;;;;;25.27;44.81;97159.94;6126491;23;20385;-25
2023/10/08 01:20:00;;;;;;;13.30;9.23;;;;;;;25.44;44.05;97148.06;6126836;23;20387;-24
2023/10/08 01:22:29;;;;;;;10.20;8.07;;;;;;;25.36;44.75;97151.34;6126719;23;20365;-25
2023/10/08 01:24:54;;;;;;;9.60;7.70;;;;;;;25.37;44.39;97152.84;6126850;23;20431;-25
2023/10/08 01:27:24;;;;;;;9.85;8.85;;;;;;;25.44;44.32;97150.84;6126465;23;20033;-25
2023/10/08 01:29:54;;;;;;;10.93;8.68;;;;;;;25.25;44.74;97150.59;6126851;23;20423;-25
2023/10/08 01:32:22;;;;;;;11.40;8.35;;;;;;;25.36;44.56;97145.78;6126646;23;20454;-25
2023/10/08 01:34:48;;;;;;;11.27;8.50;;;;;;;25.39;44.15;97157.91;6126533;23;20010;-25
2023/10/08 01:37:18;;;;;;;11.25;7.80;;;;;;;25.32;44.48;97150.88;6126458;23;20047;-25
2023/10/08 01:39:49;;;;;;;11.13;8.68;;;;;;;25.50;44.01;97146.78;6126680;23;20017;-25
2023/10/08 01:42:20;;;;;;;10.07;7.93;;;;;;;25.50;43.94;97146.78;6126405;23;20389;-25
2023/10/08 01:44:47;;;;;;;10.82;7.68;;;;;;;25.46;44.00;97160.19;6126553;23;20423;-25
2023/10/08 01:47:14;;;;;;;9.68;8.18;;;;;;;25.37;44.19;97144.53;6100788;23;19998;-25
2023/10/08 01:49:39;;;;;;;12.68;8.85;;;;;;;25.30;44.35;97147.84;6126206;23;20074;-25
2023/10/08 01:52:13;;;;;;;10.50;8.35;;;;;;;25.19;44.33;97147.84;6126418;23;20065;-25
2023/10/08 01:54:40;;;;;;;14.27;8.70;;;;;;;25.39;44.17;97150.34;6126728;23;20005;-25
2023/10/08 01:57:08;;;;;;;11.43;8.23;;;;;;;25.41;44.06;97133.94;6126311;23;20045;-25
2023/10/08 01:59:34;;;;;;;11.63;8.32;;;;;;;25.40;43.81;97140.75;6126485;23;20372;-25
2023/10/08 02:01:59;;;;;;;9.85;8.85;;;;;;;25.40;43.62;97132.41;6126127;23;20010;-25
2023/10/08 02:04:25;;;;;;;9.68;8.68;;;;;;;25.52;43.29;97138.69;6126269;23;20005;-25
2023/10/08 02:06:50;;;;;;;11.48;8.52;;;;;;;25.29;43.96;97138.00;6126336;23;20006;-25
2023/10/08 02:09:16;;;;;;;10.82;7.70;;;;;;;25.35;43.95;97144.28;6126055;23;20037;-25
2023/10/08 02:11:53;;;;;;;12.68;8.45;;;;;;;25.50;43.42;97140.47;6126694;23;20009;-25
2023/10/08 02:14:20;;;;;;;9.32;8.07;;;;;;;25.43;43.50;97141.75;6100431;23;20005;-25
2023/10/08 02:16:49;;;;;;;10.55;8.02;;;;;;;25.37;43.47;97144.53;6126310;23;20006;-25
2023/10/08 02:19:18;;;;;;;13.15;8.85;;;;;;;25.30;43.70;97144.31;6125900;23;20424;-25
2023/10/08 02:21:46;;;;;;;10.13;8.23;;;;;;;25.38;43.76;97137.72;6126507;23;20435;-25
2023/10/08 02:24:12;;;;;;;12.40;9.07;;;;;;;25.31;43.90;97135.47;6126060;23;20006;-25
2023/10/08 02:26:38;;;;;;;9.77;8.73;;;;;;;25.38;43.52;97140.50;6126220;23;20085;-25
2023/10/08 02:29:10;;;;;;;10.40;7.88;;;;;;;25.43;43.52;97141.75;6126228;23;20002;-25
2023/10/08 02:31:40;;;;;;;11.40;8.75;;;;;;;25.25;44.13;97133.97;6125892;23;20044;-25
2023/10/08 02:34:07;;;;;;;9.90;7.78;;;;;;;25.24;43.84;97130.41;6126319;23;20002;-25
2023/10/08 02:36:37;;;;;;;9.20;8.02;;;;;;;25.18;43.88;97135.25;6125782;23;20101;-25
2023/10/08 02:39:13;;;;;;;9.77;8.70;;;;;;;25.20;43.97;97131.97;6125715;23;20077;-25
2023/10/08 02:41:41;;;;;;;11.07;8.10;;;;;;;25.21;44.07;97128.69;6125978;23;20037;-25
2023/10/08 02:44:11;;;;;;;10.70;8.15;;;;;;;25.22;43.99;97119.06;6125945;23;20009;-25
2023/10/08 02:46:40;;;;;;;11.13;8.80;;;;;;;25.35;43.70;97133.16;6126050;23;20534;-25
2023/10/08 02:49:10;;;;;;;11.15;8.55;;;;;;;25.18;43.82;97126.16;6126104;23;20012;-25
2023/10/08 02:51:35;;;;;;;11.25;8.82;;;;;;;25.30;43.73;97131.19;6125970;23;20005;-25
2023/10/08 02:54:05;;;;;;;11.60;8.45;;;;;;;25.16;44.05;97126.66;6125755;23;20009;-25
2023/10/08 02:56:32;;;;;;;11.20;8.55;;;;;;;25.25;43.63;97125.63;6126168;23;20002;-25
2023/10/08 02:58:58;;;;;;;9.02;7.50;;;;;;;25.30;43.52;97128.41;6125812;23;20010;-25
2023/10/08 03:01:25;;;;;;;9.10;7.55;;;;;;;25.23;43.94;97120.56;6126308;23;20052;-25
2023/10/08 03:03:54;;;;;;;11.13;8.25;;;;;;;25.24;44.13;97122.09;6125713;23;20057;-25
2023/10/08 03:06:24;;;;;;;13.82;8.27;;;;;;;25.05;44.28;97126.69;6126001;23;20006;-25
2023/10/08 03:08:51;;;;;;;13.60;7.88;;;;;;;25.12;44.16;97122.63;6126023;23;20085;-25
2023/10/08 03:11:16;;;;;;;11.35;8.48;;;;;;;25.28;43.66;97114.28;6125938;23;20447;-25
2023/10/08 03:13:46;;;;;;;11.32;7.80;;;;;;;25.42;43.45;97124.34;6125951;23;19998;-25
2023/10/08 03:16:13;;;;;;;9.88;7.82;;;;;;;25.29;43.59;97118.56;6125673;23;20005;-25
2023/10/08 03:18:44;;;;;;;9.40;8.32;;;;;;;25.19;43.96;97125.66;6126034;23;20342;-25
2023/10/08 03:21:33;;;;;;;12.68;8.80;;;;;;;25.30;43.79;97124.88;6125864;23;20041;-25
2023/10/08 03:23:59;;;;;;;10.25;8.35;;;;;;;25.37;43.22;97114.00;6125954;23;20005;-25
2023/10/08 03:26:33;;;;;;;10.45;8.13;;;;;;;25.47;42.89;97110.94;6125685;23;20361;-25
2023/10/08 03:29:00;;;;;;;10.05;7.90;;;;;;;25.19;43.43;97111.00;6125916;23;20013;-25
2023/10/08 03:31:44;;;;;;;9.85;7.57;;;;;;;25.14;43.29;97111.78;6099823;23;20013;-25
2023/10/08 03:34:14;;;;;;;10.40;7.85;;;;;;;25.25;43.05;97106.94;6125755;23;20006;-25
2023/10/08 03:36:46;;;;;;;9.07;7.80;;;;;;;25.26;42.56;97111.25;6125501;23;20014;-25
2023/10/08 03:39:15;;;;;;;10.35;8.05;;;;;;;25.09;43.01;97116.09;6125948;23;20006;-25
2023/10/08 03:41:58;;;;;;;11.18;7.70;;;;;;;25.22;42.31;97112.78;6125702;23;20014;-25
2023/10/08 03:44:24;;;;;;;10.63;8.02;;;;;;;25.34;42.06;97108.72;6125968;23;20009;-25
2023/10/08 03:46:52;;;;;;;9.40;7.88;;;;;;;25.22;42.57;97113.50;6099908;23;20376;-24
2023/10/08 03:51:48;;;;;;;8.90;7.90;;;;;;;25.27;42.10;97117.56;6127910;23;20006;-25
2023/10/08 03:54:18;;;;;;;9.48;7.80;;;;;;;25.26;41.94;97114.00;6128097;23;20002;-25
2023/10/08 03:56:51;;;;;;;9.40;7.90;;;;;;;25.35;41.91;97122.06;6127675;23;20013;-25
2023/10/08 03:59:29;;;;;;;10.57;8.07;;;;;;;25.19;41.97;97119.34;6127563;23;20357;-25
2023/10/08 04:01:59;;;;;;;8.38;7.00;;;;;;;25.28;41.90;97111.50;6127173;23;20069;-25
2023/10/08 04:04:30;;;;;;;8.98;7.38;;;;;;;25.21;41.91;97120.34;6127518;23;20006;-25
2023/10/08 04:07:24;;;;;;;9.13;7.20;;;;;;;25.30;41.72;97111.75;6127307;23;20379;-25
2023/10/08 04:09:42;;;;;;;9.00;7.60;;;;;;;25.29;41.89;97120.56;6127341;23;20005;-25
2023/10/08 04:12:10;;;;;;;10.15;7.50;;;;;;;25.24;41.82;97121.34;6127198;23;20388;-25
2023/10/08 04:14:36;;;;;;;9.35;7.57;;;;;;;25.19;42.05;97120.09;6127517;23;20002;-25
2023/10/08 04:17:01;;;;;;;10.65;7.82;;;;;;;25.28;41.61;97121.84;6127327;23;20077;-25
2023/10/08 04:19:27;;;;;;;9.48;6.97;;;;;;;25.12;42.24;97128.94;6127277;23;20032;-25
2023/10/08 04:21:56;;;;;;;9.65;7.85;;;;;;;25.14;42.01;97129.19;6127132;23;20002;-25
2023/10/08 04:24:45;;;;;;;11.52;7.97;;;;;;;25.19;41.89;97122.13;6127034;23;20435;-25
2023/10/08 04:27:09;;;;;;;9.43;7.32;;;;;;;25.13;41.93;97127.66;6126666;23;20005;-25
2023/10/08 04:29:38;;;;;;;9.05;7.00;;;;;;;25.24;41.68;97127.66;6127074;23;20017;-25
2023/10/08 04:32:07;;;;;;;13.10;7.68;;;;;;;25.12;42.00;97126.16;6127546;23;20324;-25
2023/10/08 04:34:36;;;;;;;10.93;7.88;;;;;;;25.13;42.16;97129.69;6127043;23;20021;-25
2023/10/08 04:37:03;;;;;;;11.45;8.05;;;;;;;25.10;42.39;97134.22;6120135;23;20018;-25
2023/10/08 04:39:32;;;;;;;9.00;7.30;;;;;;;25.07;42.27;97132.47;6127005;23;20009;-25
2023/10/08 04:42:11;;;;;;;9.18;7.25;;;;;;;25.28;41.78;97139.25;6127242;23;20029;-25
2023/10/08 04:44:40;;;;;;;9.27;7.50;;;;;;;25.29;42.12;97143.53;6127047;23;20080;-25
2023/10/08 04:47:09;;;;;;;10.70;7.35;;;;;;;25.24;41.96;97127.66;6127213;23;20027;-25
2023/10/08 04:49:37;;;;;;;10.88;7.95;;;;;;;25.23;42.31;97133.69;6127169;23;20029;-25
2023/10/08 04:52:18;;;;;;;8.98;8.07;;;;;;;25.18;42.21;97140.03;6127360;23;20010;-25
2023/10/08 04:55:01;;;;;;;13.35;8.80;;;;;;;25.20;42.34;97135.50;6127257;23;20002;-24
2023/10/08 04:57:30;;;;;;;8.95;7.97;;;;;;;25.26;42.22;97144.56;6127199;23;20006;-25
2023/10/08 04:59:57;;;;;;;10.48;7.28;;;;;;;25.32;42.06;97139.75;6126899;23;20324;-25
2023/10/08 05:02:49;;;;;;;9.88;7.82;;;;;;;25.14;42.23;97131.97;6126857;23;20006;-25
2023/10/08 05:13:12;;;;;;;9.93;7.45;;;;;;;25.07;42.56;97140.81;6132585;23;20002;-25
2023/10/08 05:15:41;;;;;;;12.32;7.90;;;;;;;24.96;42.85;97135.28;6126885;23;20010;-25
2023/10/08 05:18:23;;;;;;;9.70;7.78;;;;;;;25.02;42.59;97138.78;6126585;23;20077;-25
2023/10/08 05:23:53;;;;;;;13.70;8.45;;;;;;;25.10;42.45;97139.78;6126849;23;20005;-25
2023/10/08 05:28:46;;;;;;;10.25;8.10;;;;;;;25.18;42.51;97148.34;6126984;23;20089;-25
2023/10/08 05:36:35;;;;;;;9.95;8.32;;;;;;;25.07;42.83;97145.59;6126364;23;20080;-25
2023/10/08 05:39:19;;;;;;;9.05;7.57;;;;;;;25.26;42.49;97146.56;6126510;23;20005;-25
2023/10/08 05:44:39;;;;;;;10.80;8.20;;;;;;;25.12;43.01;97148.34;6126490;23;20395;-24
2023/10/08 05:53:43;;;;;;;11.63;8.43;;;;;;;25.18;42.68;97160.22;6009391;23;20419;-25
2023/10/08 05:55:34;;;;;;;8.20;7.40;;;;;;;25.13;42.74;97172.06;5999266;23;20012;-25
2023/10/08 06:01:01;;;;;;;11.23;7.95;;;;;;;25.09;42.82;97177.16;6009322;23;20008;-25
2023/10/08 06:03:32;;;;;;;9.73;7.63;;;;;;;25.14;42.62;97179.16;6008781;23;20435;-25
2023/10/08 06:11:41;;;;;;;9.02;7.53;;;;;;;25.07;42.81;97193.53;6009157;23;20018;-25
2023/10/08 06:14:36;;;;;;;10.52;8.68;;;;;;;25.17;42.67;97199.59;6008192;23;20318;-25
2023/10/08 06:17:13;;;;;;;19.45;9.65;;;;;;;25.15;42.96;97200.09;6008482;23;20011;-25
2023/10/08 06:19:39;;;;;;;10.57;9.23;;;;;;;25.12;42.98;97201.09;6008631;23;20338;-25
2023/10/08 06:22:05;;;;;;;13.18;8.60;;;;;;;25.01;43.28;97203.88;6008754;23;20083;-25
2023/10/08 06:24:33;;;;;;;11.00;8.93;;;;;;;25.21;42.88;97200.84;6008464;23;20397;-25
2023/10/08 06:27:04;;;;;;;12.30;8.82;;;;;;;25.31;43.09;97206.91;6008541;23;20084;-25
2023/10/08 06:29:31;;;;;;;13.02;7.97;;;;;;;25.11;43.71;97207.91;6121677;23;20081;-25
2023/10/08 06:32:01;;;;;;;10.75;8.00;;;;;;;25.21;43.39;97202.88;6126204;23;20026;-25
2023/10/08 06:34:31;;;;;;;12.65;8.38;;;;;;;25.17;43.64;97205.13;6126082;23;20002;-25
2023/10/08 06:36:58;;;;;;;13.18;8.52;;;;;;;25.16;43.66;97209.94;6125815;23;20022;-25
2023/10/08 06:39:47;;;;;;;9.63;7.82;;;;;;;25.34;43.23;97214.97;6126175;23;20381;-25
2023/10/08 06:42:14;;;;;;;13.32;9.15;;;;;;;25.44;43.08;97211.94;6126242;23;20006;-25
2023/10/08 06:44:42;;;;;;;10.35;8.07;;;;;;;25.22;43.62;97213.44;6125922;23;20006;-25
2023/10/08 06:47:09;;;;;;;9.48;7.93;;;;;;;25.41;43.54;97214.47;6125991;23;20002;-25
2023/10/08 06:49:35;;;;;;;11.15;7.60;;;;;;;25.34;43.94;97209.44;6126005;23;20491;-25
2023/10/08 06:52:01;;;;;;;10.57;7.55;;;;;;;25.28;43.79;97217.00;6125897;23;20002;-25
2023/10/08 06:54:30;;;;;;;10.30;6.97;;;;;;;25.39;43.66;97214.19;6126143;23;20025;-25
2023/10/08 06:56:56;;;;;;;9.75;7.45;;;;;;;25.36;43.85;97217.97;6125802;23;20037;-25
2023/10/08 06:59:23;;;;;;;10.50;7.80;;;;;;;25.45;43.75;97207.91;6126048;23;20057;-25
2023/10/08 07:01:51;;;;;;;13.32;7.95;;;;;;;25.42;43.58;97207.63;6126067;23;20376;-25
2023/10/08 07:04:18;;;;;;;10.18;6.75;;;;;;;25.40;43.75;97215.72;6125696;23;20512;-25
2023/10/08 07:06:46;;;;;;;9.27;7.50;;;;;;;25.44;43.63;97215.47;6126229;23;20005;-25
2023/10/08 07:11:57;;;;;;;10.35;7.50;;;;;;;25.46;43.37;97215.72;6128420;23;20064;-25
2023/10/08 07:14:26;;;;;;;9.25;7.40;;;;;;;25.52;43.42;97218.47;6126054;23;20002;-25
2023/10/08 07:17:00;;;;;;;8.10;7.13;;;;;;;25.34;43.61;97222.56;6125899;23;20071;-25
2023/10/08 07:19:37;;;;;;;14.00;8.05;;;;;;;25.52;43.23;97224.03;6125693;23;20005;-25
2023/10/08 07:22:17;;;;;;;13.70;7.88;;;;;;;25.42;43.52;97238.19;6125990;23;20121;-25
2023/10/08 07:24:45;;;;;;;9.95;7.63;;;;;;;25.31;44.43;97231.88;6127191;23;20006;-25
2023/10/08 07:27:11;;;;;;;8.55;7.10;;;;;;;25.29;45.33;97232.38;6127912;23;20006;-25
2023/10/08 07:29:37;;;;;;;10.60;6.95;;;;;;;25.33;44.72;97227.34;6127608;23;20005;-25
2023/10/08 07:32:09;;;;;;;11.40;8.02;;;;;;;25.46;44.70;97231.63;6127808;23;20053;-25
2023/10/08 07:34:36;;;;;;;9.25;7.93;;;;;;;25.42;45.10;97234.66;6127902;23;20032;-25
2023/10/08 07:37:02;;;;;;;14.75;7.25;;;;;;;25.42;45.39;97231.88;6127749;23;20025;-25
2023/10/08 07:39:35;;;;;;;12.57;7.65;;;;;;;25.53;45.92;97236.66;6127454;23;20010;-25
2023/10/08 07:42:08;;;;;;;14.18;8.07;;;;;;;25.41;46.08;97238.69;6127783;23;20033;-25
2023/10/08 07:44:38;;;;;;;14.18;8.38;;;;;;;25.27;46.73;97234.16;6127572;23;20077;-25
2023/10/08 07:47:05;;;;;;;12.93;8.18;;;;;;;25.25;46.77;97240.22;6127685;23;20025;-25
2023/10/08 07:49:31;;;;;;;10.77;7.65;;;;;;;25.41;46.56;97235.91;6127862;23;20009;-25
2023/10/08 07:51:59;;;;;;;11.00;8.32;;;;;;;25.34;46.85;97233.66;6127370;23;20006;-25
2023/10/08 07:54:28;;;;;;;12.18;8.13;;;;;;;25.48;46.07;97240.19;6127518;23;20368;-25
2023/10/08 07:57:08;;;;;;;17.48;10.25;;;;;;;25.41;46.80;97235.91;6127485;23;20001;-25
2023/10/08 07:59:38;;;;;;;15.10;10.60;;;;;;;25.37;46.79;97230.59;6127688;23;20006;-25
2023/10/08 08:02:09;;;;;;;22.63;12.00;;;;;;;25.35;47.02;97227.56;6127512;23;20412;-25
2023/10/08 08:04:36;;;;;;;18.27;12.23;;;;;;;25.50;46.41;97232.09;6127147;23;20010;-25
2023/10/08 08:07:04;;;;;;;17.73;12.70;;;;;;;25.42;47.08;97227.06;6127013;23;20336;-25
2023/10/08 08:09:30;;;;;;;17.90;12.23;;;;;;;25.38;46.96;97231.38;6127477;23;20025;-25
2023/10/08 08:11:57;;;;;;;16.17;12.63;;;;;;;25.41;47.43;97233.13;6127756;23;20412;-25
2023/10/08 08:14:24;;;;;;;17.80;12.32;;;;;;;25.40;47.53;97229.59;6127296;23;20376;-25
2023/10/08 08:16:51;;;;;;;22.67;12.95;;;;;;;25.42;47.58;97218.00;6127397;23;20503;-25
2023/10/08 08:19:17;;;;;;;16.08;11.73;;;;;;;25.61;46.91;97227.31;6127217;23;20056;-25
2023/10/08 08:21:46;;;;;;;14.52;11.15;;;;;;;25.64;46.57;97211.66;6127319;23;20006;-25
2023/10/08 08:24:13;;;;;;;18.27;11.80;;;;;;;25.73;46.79;97216.94;6127056;23;20009;-25
2023/10/08 08:26:40;;;;;;;17.05;11.38;;;;;;;25.83;46.49;97220.22;6126951;23;20012;-25
2023/10/08 08:29:09;;;;;;;13.35;10.35;;;;;;;26.07;45.33;97218.38;6127284;23;20005;-25
2023/10/08 08:31:35;;;;;;;15.05;10.25;;;;;;;25.80;45.63;97207.34;6126966;23;20009;-25
2023/10/08 08:34:08;;;;;;;17.17;10.15;;;;;;;25.96;45.47;97212.09;6127145;23;20006;-25
2023/10/08 08:36:34;;;;;;;13.85;9.18;;;;;;;26.01;44.94;97212.06;6126623;23;20018;-25
2023/10/08 08:38:59;;;;;;;14.70;9.63;;;;;;;25.94;45.08;97225.75;6126951;23;20002;-25
2023/10/08 08:41:24;;;;;;;14.27;9.15;;;;;;;26.01;45.13;97230.75;6127251;23;20006;-25
2023/10/08 08:44:04;;;;;;;11.10;8.40;;;;;;;26.06;45.35;97216.84;6126726;23;20086;-25
2023/10/08 08:46:32;;;;;;;12.50;8.30;;;;;;;26.13;44.93;97227.44;6127379;23;20001;-25
2023/10/08 08:49:03;;;;;;;10.85;8.02;;;;;;;26.21;45.20;97224.84;6127078;23;20344;-25
2023/10/08 08:51:30;;;;;;;12.45;7.35;;;;;;;26.22;45.09;97222.84;6127160;23;20006;-25
2023/10/08 08:53:55;;;;;;;10.57;7.70;;;;;;;26.05;45.61;97220.91;6101009;23;20394;-25
2023/10/08 08:56:22;;;;;;;12.60;9.20;;;;;;;26.27;44.75;97236.72;6127151;23;20002;-25
2023/10/08 08:58:49;;;;;;;13.02;8.30;;;;;;;26.28;45.00;97238.28;6126823;23;20001;-25
2023/10/08 09:01:17;;;;;;;12.25;7.90;;;;;;;26.19;44.91;97235.00;6126953;23;20008;-25
2023/10/08 09:03:43;;;;;;;10.95;7.78;;;;;;;26.32;44.35;97224.09;6126933;23;20076;-25
2023/10/08 09:06:08;;;;;;;8.15;7.35;;;;;;;26.23;44.93;97225.09;6126790;23;20005;-25
2023/10/08 09:08:41;;;;;;;12.52;8.40;;;;;;;26.21;44.91;97233.19;6126957;23;20459;-24
2023/10/08 09:11:08;;;;;;;9.23;7.65;;;;;;;26.10;45.36;97234.00;6127262;23;20006;-25
2023/10/08 09:13:34;;;;;;;14.55;7.85;;;;;;;26.27;44.93;97235.97;6126985;23;20323;-25
2023/10/08 09:16:20;;;;;;;10.18;7.20;;;;;;;26.35;45.01;97231.41;6126993;23;20036;-25
2023/10/08 09:18:49;;;;;;;13.15;8.02;;;;;;;26.24;44.78;97242.53;6126464;23;20016;-25
2023/10/08 09:21:19;;;;;;;11.05;7.97;;;;;;;26.40;44.54;97236.19;6126668;23;20005;-25
2023/10/08 09:23:50;;;;;;;9.52;7.32;;;;;;;26.36;44.80;97236.44;6126645;23;20060;-24
2023/10/08 09:26:22;;;;;;;10.38;8.07;;;;;;;26.39;44.70;97237.47;6126663;23;20013;-25
2023/10/08 09:28:48;;;;;;;7.93;6.80;;;;;;;26.44;44.55;97228.34;6126962;23;20002;-25
2023/10/08 09:31:14;;;;;;;11.27;7.18;;;;;;;26.41;44.77;97223.81;6126871;23;20006;-25
2023/10/08 09:33:41;;;;;;;10.57;7.47;;;;;;;26.47;44.39;97235.63;6126555;23;20073;-25
2023/10/08 09:36:10;;;;;;;9.63;7.28;;;;;;;26.40;44.56;97227.84;6126577;23;20024;-25
2023/10/08 09:38:37;;;;;;;10.45;7.45;;;;;;;26.39;44.71;97224.31;6126197;23;20048;-25
2023/10/08 09:41:03;;;;;;;9.07;7.25;;;;;;;26.36;44.24;97228.09;6126655;23;20077;-25
2023/10/08 09:43:35;;;;;;;10.77;7.07;;;;;;;26.43;44.09;97227.59;6126470;23;20006;-25
2023/10/08 09:46:09;;;;;;;11.63;7.53;;;;;;;26.58;43.92;97227.22;6126706;23;20002;-25
2023/10/08 09:48:38;;;;;;;10.82;7.55;;;;;;;26.44;44.01;97231.13;6125934;23;20009;-25
2023/10/08 09:51:06;;;;;;;10.98;7.20;;;;;;;26.55;43.62;97228.28;6126426;23;20447;-25
2023/10/08 09:54:00;;;;;;;10.60;7.30;;;;;;;26.45;43.55;97225.06;6126564;23;20082;-25
2023/10/08 09:56:29;;;;;;;8.85;6.78;;;;;;;26.51;43.48;97227.03;6126817;23;20072;-24
2023/10/08 09:58:54;;;;;;;10.60;7.05;;;;;;;26.53;42.26;97233.59;6126014;23;20006;-25
2023/10/08 10:01:22;;;;;;;7.60;6.18;;;;;;;26.60;41.72;97232.28;6126323;23;20377;-25
2023/10/08 10:03:49;;;;;;;8.43;6.35;;;;;;;26.66;41.51;97231.00;6126178;23;20341;-25
2023/10/08 10:06:17;;;;;;;7.80;5.78;;;;;;;26.69;41.42;97227.19;6126386;23;20432;-25
2023/10/08 10:08:43;;;;;;;6.50;5.80;;;;;;;26.71;40.62;97229.44;6126610;23;20002;-25
2023/10/08 10:11:10;;;;;;;7.78;6.35;;;;;;;26.55;40.33;97227.53;6126121;23;20006;-25
2023/10/08 10:13:52;;;;;;;9.10;5.85;;;;;;;26.46;39.68;97225.78;6126070;23;20013;-25
2023/10/08 10:16:21;;;;;;;7.82;5.78;;;;;;;26.59;39.13;97225.19;6126308;23;20009;-24
2023/10/08 10:18:49;;;;;;;13.40;5.63;;;;;;;26.60;38.98;97224.69;6126263;23;20009;-25
2023/10/08 10:21:15;;;;;;;8.57;6.00;;;;;;;26.63;39.67;97220.88;6126127;23;20016;-25
2023/10/08 10:23:50;;;;;;;8.13;5.55;;;;;;;26.65;39.33;97235.03;6126086;23;20439;-25
2023/10/08 10:26:23;;;;;;;10.23;6.68;;;;;;;26.55;39.38;97224.75;6126153;23;20021;-25
2023/10/08 10:29:06;;;;;;;;;;;;;;;26.70;39.66;97234.25;6126681;23;20009;-25
2023/10/08 10:31:34;;;;;;;;;;;;;;;26.72;39.38;97226.13;6126505;23;19911;-25
2023/10/08 10:34:05;;;;;;;9.02;5.45;;;;;;;26.59;40.04;97228.75;6126181;23;19905;-25
2023/10/08 10:36:31;;;;;;;8.50;5.90;;;;;;;26.67;39.61;97229.72;6125797;23;20018;-25
2023/10/08 10:38:57;;;;;;;9.10;5.65;;;;;;;26.66;39.79;97236.56;6126145;23;20002;-25
2023/10/08 10:41:22;;;;;;;7.00;5.88;;;;;;;26.78;39.75;97234.47;6125951;23;20013;-25
2023/10/08 10:43:52;;;;;;;7.82;6.18;;;;;;;26.71;40.38;97230.19;6124196;23;20010;-25
2023/10/08 10:46:30;;;;;;;8.00;5.80;;;;;;;26.66;39.95;97219.88;6126163;23;20014;-25
2023/10/08 10:49:32;;;;;;;7.70;5.80;;;;;;;26.67;40.35;97220.63;6125871;23;20006;-25
2023/10/08 10:52:03;;;;;;;9.68;5.88;;;;;;;26.63;40.66;97223.66;6122951;23;20016;-25
2023/10/08 10:54:36;;;;;;;9.27;5.93;;;;;;;26.69;40.31;97227.19;6099996;23;20377;-25
2023/10/08 10:57:17;;;;;;;7.00;5.88;;;;;;;26.71;40.26;97213.50;6126116;23;20081;-25
2023/10/08 10:59:52;;;;;;;7.25;6.20;;;;;;;26.78;40.20;97221.31;6127527;23;20036;-25
2023/10/08 11:02:30;;;;;;;8.38;6.03;;;;;;;26.75;40.26;97213.97;6127996;23;20068;-25
2023/10/08 11:05:07;;;;;;;13.70;6.28;;;;;;;26.83;40.32;97206.56;6127797;23;20002;-25
2023/10/08 11:07:34;;;;;;;8.57;5.95;;;;;;;26.79;39.92;97205.38;6128169;23;20009;-25
2023/10/08 11:10:00;;;;;;;7.95;5.82;;;;;;;26.91;40.08;97215.16;6127781;23;20335;-25
2023/10/08 11:12:42;;;;;;;7.90;5.90;;;;;;;26.63;40.25;97203.44;6127849;23;20009;-25
2023/10/08 11:15:15;;;;;;;6.60;5.80;;;;;;;26.73;39.99;97191.47;6127984;23;20029;-25
2023/10/08 11:17:41;;;;;;;;;;;;;;;26.75;40.75;97193.75;6128465;23;20002;-25
2023/10/08 11:20:26;;;;;;;10.63;5.90;;;;;;;26.80;40.47;97190.94;6127859;23;19911;-25
2023/10/08 11:22:53;;;;;;;7.97;6.18;;;;;;;26.87;40.91;97189.59;6127733;23;20423;-25
2023/10/08 11:25:30;;;;;;;8.45;5.85;;;;;;;26.82;40.18;97199.53;6127616;23;20002;-25
2023/10/08 11:28:01;;;;;;;8.10;6.03;;;;;;;26.83;40.14;97197.47;6128074;23;20340;-25
2023/10/08 11:30:31;;;;;;;8.60;5.80;;;;;;;26.90;39.74;97193.38;6127492;23;20012;-25
2023/10/08 11:33:00;;;;;;;8.48;5.60;;;;;;;26.82;40.02;97196.00;6127715;23;20021;-25
2023/10/08 11:35:27;;;;;;;9.68;5.50;;;;;;;26.75;40.23;97194.50;6127263;23;20013;-25
2023/10/08 11:38:00;;;;;;;7.88;6.13;;;;;;;26.74;40.09;97190.22;6127686;23;20028;-25
2023/10/08 11:40:47;;;;;;;8.02;5.95;;;;;;;26.78;40.46;97187.16;6127646;23;20010;-25
2023/10/08 11:43:15;;;;;;;7.80;6.00;;;;;;;26.72;39.93;97187.19;6127564;23;20013;-25
2023/10/08 11:45:48;;;;;;;6.45;5.40;;;;;;;26.75;39.74;97188.19;6127465;23;20448;-25
2023/10/08 11:48:28;;;;;;;8.75;6.00;;;;;;;26.79;39.97;97186.63;6127955;23;20010;-25
2023/10/08 11:50:57;;;;;;;7.78;5.90;;;;;;;26.84;39.48;97183.03;6127733;23;20049;-25
2023/10/08 11:53:24;;;;;;;7.05;5.70;;;;;;;26.83;39.39;97181.53;6127575;23;20007;-25
2023/10/08 11:55:54;;;;;;;7.95;6.10;;;;;;;26.84;39.30;97173.94;6127234;23;20495;-25
2023/10/08 11:58:20;;;;;;;10.10;5.97;;;;;;;26.98;39.11;97178.41;6127983;23;20022;-25
2023/10/08 12:00:46;;;;;;;7.65;5.93;;;;;;;26.91;38.40;97170.63;6127455;23;20006;-25
2023/10/08 12:03:19;;;;;;;8.13;6.22;;;;;;;26.90;38.54;97173.91;6127331;23;20138;-25
2023/10/08 12:05:48;;;;;;;;;;;;;;;26.81;38.23;97163.88;6128260;23;20006;-25
2023/10/08 12:08:20;;;;;;;8.32;5.63;;;;;;;26.88;38.57;97165.31;6127123;23;20040;-25
2023/10/08 12:10:47;;;;;;;7.57;5.95;;;;;;;26.93;38.31;97161.78;6126961;23;20029;-25
2023/10/08 12:13:16;;;;;;;8.10;6.25;;;;;;;26.83;38.18;97162.06;6127349;23;20009;-25
2023/10/08 12:15:44;;;;;;;9.43;5.90;;;;;;;26.89;38.05;97166.84;6127647;23;20057;-25
2023/10/08 12:18:15;;;;;;;9.45;5.88;;;;;;;26.81;37.15;97153.50;6127120;23;20002;-25
2023/10/08 12:20:46;;;;;;;7.45;5.32;;;;;;;26.77;37.66;97149.47;6127564;23;20074;-24
2023/10/08 12:23:18;;;;;;;7.43;5.50;;;;;;;26.84;36.83;97144.09;6127079;23;20009;-25
2023/10/08 12:25:51;;;;;;;8.18;5.72;;;;;;;26.81;37.06;97156.28;6127611;23;20138;-25
2023/10/08 12:28:19;;;;;;;7.38;5.70;;;;;;;26.78;37.20;97151.72;6127277;23;20002;-25